»·PEaware :: N25DB KPSC-KBFI

N25DB :: KPSC-KBFI

FLIGHT INFORMATION

Flight Status: Arrived
Operator: Privately registered:
United States
More flights under this callsign
Pilot: David S. (6552)
Aircraft: Unknown
(EPIC)
More flights by this aircraft type
Origin: KPSC Tri-Cities
United States
Destination: KBFI Boeing Field/King Co Intl
United States
More flights between these airports :: More routes between these airports
Route: PSC7 PSC V204 YKM V4 CHINS CHINS4
File this flight plan on PilotEdge
Remarks:
Altitude:
(Current/Filed)
20,000ft
Speed:
(Current/Filed)
250kts
Departed: 06-Dec-21 01:12 PM
Arrived: 06-Dec-21 02:03 PM
Distance/Time
Traveled:
151nm/0:51
Distance/Time
To Go:
Arrived

Flight Plot

Page will automatically refresh every two minutes.

Flight plan parsing failed; only flown route is shown


Map Options




Map Legend


Flown Route
Filed Route
Departure Airport
Arrival Airport
Navaid (VOR, NDB)
Fix

Horizontal Profiles

Position Reports

Time Latitude Longitude Heading Altitude Ground
Speed
06-Dec-21 12:40 46.265758 -119.105813 251 413ft 0kts
06-Dec-21 12:41 46.265758 -119.105813 251 413ft 0kts
06-Dec-21 12:42 46.265758 -119.105813 251 413ft 0kts
06-Dec-21 12:43 46.265758 -119.105813 251 413ft 0kts
06-Dec-21 12:44 46.265758 -119.105813 251 413ft 0kts
06-Dec-21 12:45 46.265758 -119.105813 251 413ft 0kts
06-Dec-21 12:46 46.265758 -119.105813 251 413ft 0kts
06-Dec-21 12:47 46.265758 -119.105813 251 413ft 0kts
06-Dec-21 12:48 46.265758 -119.105813 251 413ft 0kts
06-Dec-21 12:49 46.265758 -119.105813 251 413ft 0kts
06-Dec-21 12:50 46.265758 -119.105813 251 413ft 0kts
06-Dec-21 12:51 46.265758 -119.105813 251 413ft 0kts
06-Dec-21 12:52 46.265758 -119.105813 251 413ft 0kts
06-Dec-21 12:53 46.265758 -119.105813 251 413ft 0kts
06-Dec-21 12:54 46.265758 -119.105813 251 413ft 0kts
06-Dec-21 12:55 46.265758 -119.105813 251 413ft 0kts
06-Dec-21 12:56 46.265758 -119.105813 251 413ft 0kts
06-Dec-21 12:57 46.265758 -119.105813 251 413ft 0kts
06-Dec-21 12:58 46.265758 -119.105813 251 413ft 0kts
06-Dec-21 12:59 46.265758 -119.105813 251 413ft 0kts
06-Dec-21 13:00 46.265758 -119.105813 251 413ft 0kts
06-Dec-21 13:01 46.265758 -119.105813 251 413ft 0kts
06-Dec-21 13:02 46.265758 -119.105813 251 413ft 0kts
06-Dec-21 13:03 46.265740 -119.105886 249 413ft 2kts
06-Dec-21 13:04 46.265573 -119.106522 248 411ft 0kts
06-Dec-21 13:05 46.265608 -119.106944 304 410ft 13kts
06-Dec-21 13:06 46.267357 -119.108677 2 409ft 12kts
06-Dec-21 13:07 46.268456 -119.108925 322 409ft 0kts
06-Dec-21 13:08 46.269427 -119.110217 316 408ft 3kts
06-Dec-21 13:09 46.269616 -119.110488 313 408ft 0kts
06-Dec-21 13:10 46.270301 -119.112243 232 406ft 10kts
06-Dec-21 13:11 46.248065 -119.143625 225 1173ft 181kts
06-Dec-21 13:12 46.211016 -119.193891 225 3817ft 187kts
06-Dec-21 13:13 46.194294 -119.253934 284 6448ft 172kts
06-Dec-21 13:14 46.204992 -119.321466 284 9239ft 172kts
06-Dec-21 13:15 46.219191 -119.383330 295 9828ft 178kts
06-Dec-21 13:16 46.243457 -119.456054 295 10997ft 231kts
06-Dec-21 13:17 46.272813 -119.543162 296 10984ft 230kts
06-Dec-21 13:18 46.296759 -119.614801 294 13908ft 183kts
06-Dec-21 13:19 46.323025 -119.693371 294 14617ft 226kts
06-Dec-21 13:20 46.350993 -119.777370 294 15995ft 251kts
06-Dec-21 13:21 46.381796 -119.869937 294 15975ft 250kts
06-Dec-21 13:22 46.411566 -119.959908 294 15962ft 244kts
06-Dec-21 13:23 46.440824 -120.048641 294 15953ft 242kts
06-Dec-21 13:24 46.469706 -120.136529 294 15953ft 242kts
06-Dec-21 13:25 46.498777 -120.225296 294 15952ft 242kts
06-Dec-21 13:26 46.527856 -120.314395 294 15952ft 245kts
06-Dec-21 13:27 46.557197 -120.404612 294 15951ft 249kts
06-Dec-21 13:28 46.592874 -120.491798 302 15950ft 252kts
06-Dec-21 13:29 46.632948 -120.575747 302 15949ft 252kts
06-Dec-21 13:30 46.672944 -120.659681 302 16017ft 251kts
06-Dec-21 13:31 46.713221 -120.744500 302 16021ft 260kts
06-Dec-21 13:32 46.754148 -120.830801 302 16013ft 254kts
06-Dec-21 13:33 46.794378 -120.915972 302 16010ft 255kts
06-Dec-21 13:34 46.837765 -121.000474 305 16004ft 265kts
06-Dec-21 13:35 46.884820 -121.087051 305 15997ft 274kts
06-Dec-21 13:36 46.932221 -121.174474 305 15435ft 271kts
06-Dec-21 13:37 46.981124 -121.265007 306 13956ft 291kts
06-Dec-21 13:38 47.030348 -121.356381 305 12051ft 278kts
06-Dec-21 13:39 47.075806 -121.441195 305 11998ft 265kts
06-Dec-21 13:40 47.118932 -121.521644 307 10036ft 224kts
06-Dec-21 13:41 47.159796 -121.598351 307 10007ft 249kts
06-Dec-21 13:42 47.203044 -121.679621 306 10011ft 251kts
06-Dec-21 13:43 47.227215 -121.773609 277 10009ft 253kts
06-Dec-21 13:44 47.235874 -121.876812 279 10004ft 253kts
06-Dec-21 13:45 47.264385 -121.970617 303 10002ft 251kts
06-Dec-21 13:46 47.313566 -122.041258 307 9569ft 227kts
06-Dec-21 13:47 47.348461 -122.113601 304 7873ft 221kts
06-Dec-21 13:48 47.380864 -122.185867 304 7007ft 198kts
06-Dec-21 13:49 47.410761 -122.253530 306 6872ft 197kts
06-Dec-21 13:50 47.439458 -122.321923 305 5858ft 196kts
06-Dec-21 13:51 47.469669 -122.390849 305 4842ft 201kts
06-Dec-21 13:52 47.511304 -122.445496 315 4029ft 199kts
06-Dec-21 13:53 47.552439 -122.497485 315 3883ft 196kts
06-Dec-21 13:54 47.598621 -122.540415 5 3029ft 203kts
06-Dec-21 13:55 47.653251 -122.530121 19 2998ft 194kts
06-Dec-21 13:56 47.686344 -122.473544 101 3010ft 175kts
06-Dec-21 13:57 47.662343 -122.414376 129 3022ft 166kts
06-Dec-21 13:58 47.620811 -122.380227 149 1650ft 158kts
06-Dec-21 13:59 47.583688 -122.347960 147 1044ft 127kts
06-Dec-21 14:00 47.559446 -122.327320 145 480ft 100kts
06-Dec-21 14:01 47.535795 -122.307316 150 22ft 70kts
06-Dec-21 14:02 47.527243 -122.298948 66 21ft 0kts
06-Dec-21 14:03 47.527692 -122.297516 147 21ft 5kts
06-Dec-21 14:04 47.527679 -122.297504 147 21ft 0kts

Navigation Log

Ident Type
Flight plan parsing failed, navigation log unavailable